sensor_id;sensor_type;location;lat;lon;timestamp;temperature;humidity
1447;DHT22;717;51.522;7.266;2024-01-15T00:02:36;4.30;99.90
1447;DHT22;717;51.522;7.266;2024-01-15T00:05:07;4.20;99.90
1447;DHT22;717;51.522;7.266;2024-01-15T00:07:39;4.20;99.90
1447;DHT22;717;51.522;7.266;2024-01-15T00:10:09;4.20;99.90
1447;DHT22;717;51.522;7.266;2024-01-15T00:12:39;4.20;99.90
1447;DHT22;717;51.522;7.266;2024-01-15T00:15:09;4.30;99.90
1447;DHT22;717;51.522;7.266;2024-01-15T00:17:39;4.20;99.90
1447;DHT22;717;51.522;7.266;2024-01-15T00:20:10;4.20;99.90
1447;DHT22;717;51.522;7.266;2024-01-15T00:22:43;4.30;99.90
1447;DHT22;717;51.522;7.266;2024-01-15T00:25:13;4.30;99.90
1447;DHT22;717;51.522;7.266;2024-01-15T00:27:43;4.30;99.90
1447;DHT22;717;51.522;7.266;2024-01-15T00:30:14;4.30;99.90
1447;DHT22;717;51.522;7.266;2024-01-15T00:32:44;4.40;99.90
1447;DHT22;717;51.522;7.266;2024-01-15T00:35:14;4.30;99.90
1447;DHT22;717;51.522;7.266;2024-01-15T00:37:47;4.30;99.90
1447;DHT22;717;51.522;7.266;2024-01-15T00:40:17;4.30;99.90
1447;DHT22;717;51.522;7.266;2024-01-15T00:42:47;4.30;99.90
1447;DHT22;717;51.522;7.266;2024-01-15T00:45:17;4.30;99.90
1447;DHT22;717;51.522;7.266;2024-01-15T00:47:47;4.30;99.90
1447;DHT22;717;51.522;7.266;2024-01-15T00:50:17;4.30;99.90
1447;DHT22;717;51.522;7.266;2024-01-15T00:52:50;4.40;99.90
1447;DHT22;717;51.522;7.266;2024-01-15T00:55:20;4.50;99.90
1447;DHT22;717;51.522;7.266;2024-01-15T00:57:50;4.50;99.90
1447;DHT22;717;51.522;7.266;2024-01-15T01:00:20;4.50;99.90
1447;DHT22;717;51.522;7.266;2024-01-15T01:02:50;4.60;99.90
1447;DHT22;717;51.522;7.266;2024-01-15T01:05:20;4.70;99.90
1447;DHT22;717;51.522;7.266;2024-01-15T01:07:53;4.70;99.90
1447;DHT22;717;51.522;7.266;2024-01-15T01:10:23;4.60;99.90
1447;DHT22;717;51.522;7.266;2024-01-15T01:12:53;4.60;99.90
1447;DHT22;717;51.522;7.266;2024-01-15T01:15:23;4.60;99.90
1447;DHT22;717;51.522;7.266;2024-01-15T01:17:54;4.60;99.90
1447;DHT22;717;51.522;7.266;2024-01-15T01:20:25;4.70;99.90
1447;DHT22;717;51.522;7.266;2024-01-15T01:22:57;4.60;99.90
1447;DHT22;717;51.522;7.266;2024-01-15T01:25:27;4.50;99.90
1447;DHT22;717;51.522;7.266;2024-01-15T01:27:57;4.50;99.90
1447;DHT22;717;51.522;7.266;2024-01-15T01:30:27;4.50;99.90
1447;DHT22;717;51.522;7.266;2024-01-15T01:32:57;4.60;99.90
1447;DHT22;717;51.522;7.266;2024-01-15T01:35:27;4.60;99.90
1447;DHT22;717;51.522;7.266;2024-01-15T01:38:00;4.60;99.90
1447;DHT22;717;51.522;7.266;2024-01-15T01:40:30;4.70;99.90
1447;DHT22;717;51.522;7.266;2024-01-15T01:43:00;4.60;99.90
1447;DHT22;717;51.522;7.266;2024-01-15T01:45:30;4.70;99.90
1447;DHT22;717;51.522;7.266;2024-01-15T01:48:00;4.70;99.90
1447;DHT22;717;51.522;7.266;2024-01-15T01:50:31;4.70;99.90
1447;DHT22;717;51.522;7.266;2024-01-15T01:53:04;4.60;99.90
1447;DHT22;717;51.522;7.266;2024-01-15T01:55:35;4.70;99.90
1447;DHT22;717;51.522;7.266;2024-01-15T01:58:06;4.70;99.90
1447;DHT22;717;51.522;7.266;2024-01-15T02:00:36;4.70;99.90
1447;DHT22;717;51.522;7.266;2024-01-15T02:03:08;4.70;99.90
1447;DHT22;717;51.522;7.266;2024-01-15T02:05:39;4.60;99.90
1447;DHT22;717;51.522;7.266;2024-01-15T02:08:12;4.60;99.90
1447;DHT22;717;51.522;7.266;2024-01-15T02:10:42;4.60;99.90
1447;DHT22;717;51.522;7.266;2024-01-15T02:13:12;4.60;99.90
1447;DHT22;717;51.522;7.266;2024-01-15T02:15:42;4.50;99.90
1447;DHT22;717;51.522;7.266;2024-01-15T02:18:13;4.60;99.90
1447;DHT22;717;51.522;7.266;2024-01-15T02:20:43;4.60;99.90
1447;DHT22;717;51.522;7.266;2024-01-15T02:23:16;4.60;99.90
1447;DHT22;717;51.522;7.266;2024-01-15T02:25:47;4.60;99.90
1447;DHT22;717;51.522;7.266;2024-01-15T02:28:17;4.60;99.90
1447;DHT22;717;51.522;7.266;2024-01-15T02:30:47;4.60;99.90
1447;DHT22;717;51.522;7.266;2024-01-15T02:33:17;4.70;99.90
1447;DHT22;717;51.522;7.266;2024-01-15T02:35:47;4.70;99.90
1447;DHT22;717;51.522;7.266;2024-01-15T02:38:20;4.70;99.90
1447;DHT22;717;51.522;7.266;2024-01-15T02:40:50;4.70;99.90
1447;DHT22;717;51.522;7.266;2024-01-15T02:43:20;4.60;99.90
1447;DHT22;717;51.522;7.266;2024-01-15T02:45:50;4.50;99.90
1447;DHT22;717;51.522;7.266;2024-01-15T02:48:20;4.50;99.90
1447;DHT22;717;51.522;7.266;2024-01-15T02:50:51;4.60;99.90
1447;DHT22;717;51.522;7.266;2024-01-15T02:53:23;4.70;99.90
1447;DHT22;717;51.522;7.266;2024-01-15T02:55:53;4.70;99.90
1447;DHT22;717;51.522;7.266;2024-01-15T02:58:23;4.70;99.90
1447;DHT22;717;51.522;7.266;2024-01-15T03:00:53;4.70;99.90
1447;DHT22;717;51.522;7.266;2024-01-15T03:03:23;4.80;99.90
1447;DHT22;717;51.522;7.266;2024-01-15T03:05:53;4.80;99.90
1447;DHT22;717;51.522;7.266;2024-01-15T03:08:26;4.80;99.90
1447;DHT22;717;51.522;7.266;2024-01-15T03:10:56;4.70;99.90
1447;DHT22;717;51.522;7.266;2024-01-15T03:13:26;4.50;99.90
1447;DHT22;717;51.522;7.266;2024-01-15T03:15:56;4.50;99.90
1447;DHT22;717;51.522;7.266;2024-01-15T03:18:26;4.50;99.90
1447;DHT22;717;51.522;7.266;2024-01-15T03:20:56;4.60;99.90
1447;DHT22;717;51.522;7.266;2024-01-15T03:23:30;4.70;99.90
1447;DHT22;717;51.522;7.266;2024-01-15T03:26:01;4.70;99.90
1447;DHT22;717;51.522;7.266;2024-01-15T03:28:31;4.70;99.90
1447;DHT22;717;51.522;7.266;2024-01-15T03:31:01;4.70;99.90
1447;DHT22;717;51.522;7.266;2024-01-15T03:33:31;4.70;99.90
1447;DHT22;717;51.522;7.266;2024-01-15T03:36:01;4.70;99.90
1447;DHT22;717;51.522;7.266;2024-01-15T03:38:33;4.70;99.90
1447;DHT22;717;51.522;7.266;2024-01-15T03:41:03;4.80;99.90
1447;DHT22;717;51.522;7.266;2024-01-15T03:43:33;4.60;99.90
1447;DHT22;717;51.522;7.266;2024-01-15T03:46:03;4.60;99.90
1447;DHT22;717;51.522;7.266;2024-01-15T03:48:34;4.60;99.90
1447;DHT22;717;51.522;7.266;2024-01-15T03:51:04;4.70;99.90
1447;DHT22;717;51.522;7.266;2024-01-15T03:53:38;4.60;99.90
1447;DHT22;717;51.522;7.266;2024-01-15T03:56:08;4.60;99.90
1447;DHT22;717;51.522;7.266;2024-01-15T03:58:38;4.60;99.90
1447;DHT22;717;51.522;7.266;2024-01-15T04:01:08;4.60;99.90
1447;DHT22;717;51.522;7.266;2024-01-15T04:03:39;4.70;99.90
1447;DHT22;717;51.522;7.266;2024-01-15T04:06:09;4.70;99.90
1447;DHT22;717;51.522;7.266;2024-01-15T04:08:42;4.80;99.90
1447;DHT22;717;51.522;7.266;2024-01-15T04:11:12;4.80;99.90
1447;DHT22;717;51.522;7.266;2024-01-15T04:13:42;4.70;99.90
1447;DHT22;717;51.522;7.266;2024-01-15T04:16:12;4.70;99.90
1447;DHT22;717;51.522;7.266;2024-01-15T04:18:42;4.80;99.90
1447;DHT22;717;51.522;7.266;2024-01-15T04:21:12;4.80;99.90
1447;DHT22;717;51.522;7.266;2024-01-15T04:23:45;4.80;99.90
1447;DHT22;717;51.522;7.266;2024-01-15T04:26:15;4.60;99.90
1447;DHT22;717;51.522;7.266;2024-01-15T04:28:45;4.70;99.90
1447;DHT22;717;51.522;7.266;2024-01-15T04:31:21;4.70;99.90
1447;DHT22;717;51.522;7.266;2024-01-15T04:33:52;4.70;99.90
1447;DHT22;717;51.522;7.266;2024-01-15T04:36:22;4.70;99.90
1447;DHT22;717;51.522;7.266;2024-01-15T04:38:55;4.70;99.90
1447;DHT22;717;51.522;7.266;2024-01-15T04:41:25;4.70;99.90
1447;DHT22;717;51.522;7.266;2024-01-15T04:43:55;4.70;99.90
1447;DHT22;717;51.522;7.266;2024-01-15T04:46:25;4.70;99.90
1447;DHT22;717;51.522;7.266;2024-01-15T04:48:55;4.80;99.90
1447;DHT22;717;51.522;7.266;2024-01-15T04:51:25;4.70;99.90
1447;DHT22;717;51.522;7.266;2024-01-15T04:53:57;4.70;99.90
1447;DHT22;717;51.522;7.266;2024-01-15T04:56:27;4.60;99.90
1447;DHT22;717;51.522;7.266;2024-01-15T04:58:57;4.70;99.90
1447;DHT22;717;51.522;7.266;2024-01-15T05:01:31;4.80;99.90
1447;DHT22;717;51.522;7.266;2024-01-15T05:04:01;4.80;99.90
1447;DHT22;717;51.522;7.266;2024-01-15T05:06:31;4.70;99.90
1447;DHT22;717;51.522;7.266;2024-01-15T05:09:04;4.70;99.90
1447;DHT22;717;51.522;7.266;2024-01-15T05:11:34;4.70;99.90
1447;DHT22;717;51.522;7.266;2024-01-15T05:14:04;4.70;99.90
1447;DHT22;717;51.522;7.266;2024-01-15T05:16:34;4.60;99.90
1447;DHT22;717;51.522;7.266;2024-01-15T05:19:04;4.60;99.90
1447;DHT22;717;51.522;7.266;2024-01-15T05:21:34;4.70;99.90
1447;DHT22;717;51.522;7.266;2024-01-15T05:24:07;4.70;99.90
1447;DHT22;717;51.522;7.266;2024-01-15T05:26:37;4.70;99.90
1447;DHT22;717;51.522;7.266;2024-01-15T05:29:07;4.70;99.90
1447;DHT22;717;51.522;7.266;2024-01-15T05:31:37;4.70;99.90
1447;DHT22;717;51.522;7.266;2024-01-15T05:34:07;4.70;99.90
1447;DHT22;717;51.522;7.266;2024-01-15T05:36:38;4.70;99.90
1447;DHT22;717;51.522;7.266;2024-01-15T05:39:10;4.80;99.90
1447;DHT22;717;51.522;7.266;2024-01-15T05:41:40;4.80;99.90
1447;DHT22;717;51.522;7.266;2024-01-15T05:44:10;4.70;99.90
1447;DHT22;717;51.522;7.266;2024-01-15T05:46:40;4.70;99.90
1447;DHT22;717;51.522;7.266;2024-01-15T05:49:10;4.80;99.90
1447;DHT22;717;51.522;7.266;2024-01-15T05:51:41;4.70;99.90
1447;DHT22;717;51.522;7.266;2024-01-15T05:54:14;4.60;99.90
1447;DHT22;717;51.522;7.266;2024-01-15T05:56:44;4.70;99.90
1447;DHT22;717;51.522;7.266;2024-01-15T05:59:14;4.80;99.90
1447;DHT22;717;51.522;7.266;2024-01-15T06:01:44;4.80;99.90
1447;DHT22;717;51.522;7.266;2024-01-15T06:04:14;4.80;99.90
1447;DHT22;717;51.522;7.266;2024-01-15T06:06:44;4.80;99.90
1447;DHT22;717;51.522;7.266;2024-01-15T06:09:17;4.80;99.90
1447;DHT22;717;51.522;7.266;2024-01-15T06:11:47;4.70;99.90
1447;DHT22;717;51.522;7.266;2024-01-15T06:14:17;4.80;99.90
1447;DHT22;717;51.522;7.266;2024-01-15T06:16:47;4.80;99.90
1447;DHT22;717;51.522;7.266;2024-01-15T06:19:16;4.80;99.90
1447;DHT22;717;51.522;7.266;2024-01-15T06:21:47;4.80;99.90
1447;DHT22;717;51.522;7.266;2024-01-15T06:24:19;4.80;99.90
1447;DHT22;717;51.522;7.266;2024-01-15T06:26:49;4.80;99.90
1447;DHT22;717;51.522;7.266;2024-01-15T06:29:20;4.90;99.90
1447;DHT22;717;51.522;7.266;2024-01-15T06:31:51;4.90;99.90
1447;DHT22;717;51.522;7.266;2024-01-15T06:34:21;4.90;99.90
1447;DHT22;717;51.522;7.266;2024-01-15T06:36:51;4.90;99.90
1447;DHT22;717;51.522;7.266;2024-01-15T06:39:24;4.90;99.90
1447;DHT22;717;51.522;7.266;2024-01-15T06:41:54;4.90;99.90
1447;DHT22;717;51.522;7.266;2024-01-15T06:44:24;4.90;99.90
1447;DHT22;717;51.522;7.266;2024-01-15T06:46:54;4.90;99.90
1447;DHT22;717;51.522;7.266;2024-01-15T06:49:29;4.90;99.90
1447;DHT22;717;51.522;7.266;2024-01-15T06:51:59;4.80;99.90
1447;DHT22;717;51.522;7.266;2024-01-15T06:54:32;4.80;99.90
1447;DHT22;717;51.522;7.266;2024-01-15T06:57:02;4.80;99.90
1447;DHT22;717;51.522;7.266;2024-01-15T06:59:34;4.90;99.90
1447;DHT22;717;51.522;7.266;2024-01-15T07:02:04;5.00;99.90
1447;DHT22;717;51.522;7.266;2024-01-15T07:04:35;5.00;99.90
1447;DHT22;717;51.522;7.266;2024-01-15T07:07:09;5.00;99.90
1447;DHT22;717;51.522;7.266;2024-01-15T07:09:42;5.00;99.90
1447;DHT22;717;51.522;7.266;2024-01-15T07:12:12;5.00;99.90
1447;DHT22;717;51.522;7.266;2024-01-15T07:14:43;5.00;99.90
1447;DHT22;717;51.522;7.266;2024-01-15T07:17:13;5.00;99.90
1447;DHT22;717;51.522;7.266;2024-01-15T07:19:43;5.00;99.90
1447;DHT22;717;51.522;7.266;2024-01-15T07:22:13;5.10;99.90
1447;DHT22;717;51.522;7.266;2024-01-15T07:24:46;5.10;99.90
1447;DHT22;717;51.522;7.266;2024-01-15T07:27:17;5.10;99.90
1447;DHT22;717;51.522;7.266;2024-01-15T07:29:47;5.10;99.90
1447;DHT22;717;51.522;7.266;2024-01-15T07:32:17;5.20;99.90
1447;DHT22;717;51.522;7.266;2024-01-15T07:34:47;5.20;99.90
1447;DHT22;717;51.522;7.266;2024-01-15T07:37:18;5.20;99.90
1447;DHT22;717;51.522;7.266;2024-01-15T07:39:50;5.20;99.90
1447;DHT22;717;51.522;7.266;2024-01-15T07:42:20;5.20;99.90
1447;DHT22;717;51.522;7.266;2024-01-15T07:44:50;5.30;99.90
1447;DHT22;717;51.522;7.266;2024-01-15T07:47:20;5.30;99.90
1447;DHT22;717;51.522;7.266;2024-01-15T07:49:50;5.20;99.90
1447;DHT22;717;51.522;7.266;2024-01-15T07:52:21;5.20;99.90
1447;DHT22;717;51.522;7.266;2024-01-15T07:54:53;5.20;99.90
1447;DHT22;717;51.522;7.266;2024-01-15T07:57:23;5.20;99.90
1447;DHT22;717;51.522;7.266;2024-01-15T07:59:53;5.10;99.90
1447;DHT22;717;51.522;7.266;2024-01-15T08:02:24;5.20;99.90
1447;DHT22;717;51.522;7.266;2024-01-15T08:04:54;5.20;99.90
1447;DHT22;717;51.522;7.266;2024-01-15T08:07:24;5.10;99.90
1447;DHT22;717;51.522;7.266;2024-01-15T08:09:57;5.10;99.90
1447;DHT22;717;51.522;7.266;2024-01-15T08:12:27;5.10;99.90
1447;DHT22;717;51.522;7.266;2024-01-15T08:14:57;5.20;99.90
1447;DHT22;717;51.522;7.266;2024-01-15T08:17:27;5.10;99.90
1447;DHT22;717;51.522;7.266;2024-01-15T08:19:59;5.00;99.90
1447;DHT22;717;51.522;7.266;2024-01-15T08:22:30;5.00;99.90
1447;DHT22;717;51.522;7.266;2024-01-15T08:25:04;4.90;99.90
1447;DHT22;717;51.522;7.266;2024-01-15T08:27:34;4.90;99.90
1447;DHT22;717;51.522;7.266;2024-01-15T08:30:05;4.90;99.90
1447;DHT22;717;51.522;7.266;2024-01-15T08:32:36;5.00;99.90
1447;DHT22;717;51.522;7.266;2024-01-15T08:35:10;5.00;99.90
1447;DHT22;717;51.522;7.266;2024-01-15T08:37:40;5.00;99.90
1447;DHT22;717;51.522;7.266;2024-01-15T08:40:13;4.90;99.90
1447;DHT22;717;51.522;7.266;2024-01-15T08:42:43;4.90;99.90
1447;DHT22;717;51.522;7.266;2024-01-15T08:45:14;4.90;99.90
1447;DHT22;717;51.522;7.266;2024-01-15T08:47:44;4.90;99.90
1447;DHT22;717;51.522;7.266;2024-01-15T08:50:14;4.90;99.90
1447;DHT22;717;51.522;7.266;2024-01-15T08:52:44;4.80;99.90
1447;DHT22;717;51.522;7.266;2024-01-15T08:55:16;4.80;99.90
1447;DHT22;717;51.522;7.266;2024-01-15T08:57:46;4.70;99.90
1447;DHT22;717;51.522;7.266;2024-01-15T09:00:17;4.80;99.90
1447;DHT22;717;51.522;7.266;2024-01-15T09:02:47;4.80;99.90
1447;DHT22;717;51.522;7.266;2024-01-15T09:05:17;4.80;99.90
1447;DHT22;717;51.522;7.266;2024-01-15T09:07:47;4.80;99.90
1447;DHT22;717;51.522;7.266;2024-01-15T09:10:21;4.80;99.90
1447;DHT22;717;51.522;7.266;2024-01-15T09:12:51;4.70;99.90
1447;DHT22;717;51.522;7.266;2024-01-15T09:15:22;4.70;99.90
1447;DHT22;717;51.522;7.266;2024-01-15T09:17:52;4.70;99.90
1447;DHT22;717;51.522;7.266;2024-01-15T09:20:22;4.70;99.90
1447;DHT22;717;51.522;7.266;2024-01-15T09:22:53;4.70;99.90
1447;DHT22;717;51.522;7.266;2024-01-15T09:25:25;4.70;99.90
1447;DHT22;717;51.522;7.266;2024-01-15T09:27:56;4.80;99.90
1447;DHT22;717;51.522;7.266;2024-01-15T09:30:26;4.70;99.90
1447;DHT22;717;51.522;7.266;2024-01-15T09:32:56;4.80;99.90
1447;DHT22;717;51.522;7.266;2024-01-15T09:35:26;4.70;99.90
1447;DHT22;717;51.522;7.266;2024-01-15T09:37:56;4.50;99.90
1447;DHT22;717;51.522;7.266;2024-01-15T09:40:31;4.50;99.90
1447;DHT22;717;51.522;7.266;2024-01-15T09:43:03;4.50;99.90
1447;DHT22;717;51.522;7.266;2024-01-15T09:45:33;4.40;99.90
1447;DHT22;717;51.522;7.266;2024-01-15T09:48:04;4.40;99.90
1447;DHT22;717;51.522;7.266;2024-01-15T09:50:34;4.50;99.90
1447;DHT22;717;51.522;7.266;2024-01-15T09:53:05;4.40;99.90
1447;DHT22;717;51.522;7.266;2024-01-15T09:55:38;4.30;99.90
1447;DHT22;717;51.522;7.266;2024-01-15T09:58:10;4.40;99.90
1447;DHT22;717;51.522;7.266;2024-01-15T10:00:41;4.50;99.90
1447;DHT22;717;51.522;7.266;2024-01-15T10:03:13;4.50;99.90
1447;DHT22;717;51.522;7.266;2024-01-15T10:05:44;4.40;99.90
1447;DHT22;717;51.522;7.266;2024-01-15T10:08:14;4.30;99.90
1447;DHT22;717;51.522;7.266;2024-01-15T10:10:47;4.30;99.90
1447;DHT22;717;51.522;7.266;2024-01-15T10:13:17;4.30;99.90
1447;DHT22;717;51.522;7.266;2024-01-15T10:15:47;4.40;99.90
1447;DHT22;717;51.522;7.266;2024-01-15T10:18:18;4.40;99.90
1447;DHT22;717;51.522;7.266;2024-01-15T10:20:48;4.50;99.90
1447;DHT22;717;51.522;7.266;2024-01-15T10:23:19;4.50;99.90
1447;DHT22;717;51.522;7.266;2024-01-15T10:25:52;4.50;99.90
1447;DHT22;717;51.522;7.266;2024-01-15T10:28:22;4.50;99.90
1447;DHT22;717;51.522;7.266;2024-01-15T10:30:58;4.40;99.90
1447;DHT22;717;51.522;7.266;2024-01-15T10:33:29;4.30;99.90
1447;DHT22;717;51.522;7.266;2024-01-15T10:36:00;4.30;99.90
1447;DHT22;717;51.522;7.266;2024-01-15T10:38:30;4.30;99.90
1447;DHT22;717;51.522;7.266;2024-01-15T10:41:03;4.30;99.90
1447;DHT22;717;51.522;7.266;2024-01-15T10:43:34;4.30;99.90
1447;DHT22;717;51.522;7.266;2024-01-15T10:46:04;4.20;99.90
1447;DHT22;717;51.522;7.266;2024-01-15T10:48:34;4.30;99.90
1447;DHT22;717;51.522;7.266;2024-01-15T10:51:05;4.30;99.90
1447;DHT22;717;51.522;7.266;2024-01-15T10:53:39;4.40;99.90
1447;DHT22;717;51.522;7.266;2024-01-15T10:56:13;4.40;99.90
1447;DHT22;717;51.522;7.266;2024-01-15T10:58:43;4.40;99.90
1447;DHT22;717;51.522;7.266;2024-01-15T11:01:14;4.50;99.90
1447;DHT22;717;51.522;7.266;2024-01-15T11:03:44;4.50;99.90
1447;DHT22;717;51.522;7.266;2024-01-15T11:06:18;4.40;99.90
1447;DHT22;717;51.522;7.266;2024-01-15T11:08:49;4.40;99.90
1447;DHT22;717;51.522;7.266;2024-01-15T11:11:22;4.40;99.90
1447;DHT22;717;51.522;7.266;2024-01-15T11:13:52;4.40;99.90
1447;DHT22;717;51.522;7.266;2024-01-15T11:16:23;4.40;99.90
1447;DHT22;717;51.522;7.266;2024-01-15T11:19:03;4.50;99.90
1447;DHT22;717;51.522;7.266;2024-01-15T11:21:42;4.50;99.90
1447;DHT22;717;51.522;7.266;2024-01-15T11:24:35;4.50;99.90
1447;DHT22;717;51.522;7.266;2024-01-15T11:27:08;4.50;99.90
1447;DHT22;717;51.522;7.266;2024-01-15T11:29:39;4.60;99.90
1447;DHT22;717;51.522;7.266;2024-01-15T11:32:07;4.60;99.90
1447;DHT22;717;51.522;7.266;2024-01-15T11:34:50;4.50;99.90
1447;DHT22;717;51.522;7.266;2024-01-15T11:37:18;4.50;99.90
1447;DHT22;717;51.522;7.266;2024-01-15T11:39:51;4.50;99.90
1447;DHT22;717;51.522;7.266;2024-01-15T11:42:24;4.50;99.90
1447;DHT22;717;51.522;7.266;2024-01-15T11:44:55;4.60;99.90
1447;DHT22;717;51.522;7.266;2024-01-15T11:50:30;4.60;99.90
1447;DHT22;717;51.522;7.266;2024-01-15T11:53:01;4.60;99.90
1447;DHT22;717;51.522;7.266;2024-01-15T11:55:34;4.60;99.90
1447;DHT22;717;51.522;7.266;2024-01-15T11:58:08;4.70;99.90
1447;DHT22;717;51.522;7.266;2024-01-15T12:00:43;4.70;99.90
1447;DHT22;717;51.522;7.266;2024-01-15T12:03:14;4.70;99.90
1447;DHT22;717;51.522;7.266;2024-01-15T12:05:44;4.70;99.90
1447;DHT22;717;51.522;7.266;2024-01-15T12:08:14;4.70;99.90
1447;DHT22;717;51.522;7.266;2024-01-15T12:10:44;4.70;99.90
1447;DHT22;717;51.522;7.266;2024-01-15T12:13:17;4.70;99.90
1447;DHT22;717;51.522;7.266;2024-01-15T12:15:48;4.80;99.90
1447;DHT22;717;51.522;7.266;2024-01-15T12:18:19;4.80;99.90
1447;DHT22;717;51.522;7.266;2024-01-15T12:20:49;4.80;99.90
1447;DHT22;717;51.522;7.266;2024-01-15T12:23:19;4.80;99.90
1447;DHT22;717;51.522;7.266;2024-01-15T12:25:50;4.80;99.90
1447;DHT22;717;51.522;7.266;2024-01-15T12:28:23;4.80;99.90
1447;DHT22;717;51.522;7.266;2024-01-15T12:30:53;4.70;99.90
1447;DHT22;717;51.522;7.266;2024-01-15T12:33:23;4.70;99.90
1447;DHT22;717;51.522;7.266;2024-01-15T12:35:53;4.70;99.90
1447;DHT22;717;51.522;7.266;2024-01-15T12:38:28;4.70;99.90
1447;DHT22;717;51.522;7.266;2024-01-15T12:41:00;4.80;99.90
1447;DHT22;717;51.522;7.266;2024-01-15T12:43:33;4.80;99.90
1447;DHT22;717;51.522;7.266;2024-01-15T12:46:03;4.80;99.90
1447;DHT22;717;51.522;7.266;2024-01-15T12:48:34;4.80;99.90
1447;DHT22;717;51.522;7.266;2024-01-15T12:51:06;4.80;99.90
1447;DHT22;717;51.522;7.266;2024-01-15T12:53:36;4.80;99.90
1447;DHT22;717;51.522;7.266;2024-01-15T12:56:06;4.80;99.90
1447;DHT22;717;51.522;7.266;2024-01-15T12:58:39;4.70;99.90
1447;DHT22;717;51.522;7.266;2024-01-15T13:01:09;4.70;99.90
1447;DHT22;717;51.522;7.266;2024-01-15T13:03:39;4.70;99.90
1447;DHT22;717;51.522;7.266;2024-01-15T13:06:09;4.70;99.90
1447;DHT22;717;51.522;7.266;2024-01-15T13:08:39;4.70;99.90
1447;DHT22;717;51.522;7.266;2024-01-15T13:11:09;4.70;99.90
1447;DHT22;717;51.522;7.266;2024-01-15T13:13:43;4.80;99.90
1447;DHT22;717;51.522;7.266;2024-01-15T13:16:14;4.80;99.90
1447;DHT22;717;51.522;7.266;2024-01-15T13:18:44;4.90;99.90
1447;DHT22;717;51.522;7.266;2024-01-15T13:21:15;4.90;99.90
1447;DHT22;717;51.522;7.266;2024-01-15T13:23:45;4.80;99.90
1447;DHT22;717;51.522;7.266;2024-01-15T13:26:15;4.80;99.90
1447;DHT22;717;51.522;7.266;2024-01-15T13:28:47;4.80;99.90
1447;DHT22;717;51.522;7.266;2024-01-15T13:31:18;4.80;99.90
1447;DHT22;717;51.522;7.266;2024-01-15T13:33:48;4.90;99.90
1447;DHT22;717;51.522;7.266;2024-01-15T13:36:18;5.00;99.90
1447;DHT22;717;51.522;7.266;2024-01-15T13:38:48;5.10;99.90
1447;DHT22;717;51.522;7.266;2024-01-15T13:41:19;5.10;99.90
1447;DHT22;717;51.522;7.266;2024-01-15T13:43:55;5.10;99.90
1447;DHT22;717;51.522;7.266;2024-01-15T13:46:25;5.00;99.90
1447;DHT22;717;51.522;7.266;2024-01-15T13:48:56;5.00;99.90
1447;DHT22;717;51.522;7.266;2024-01-15T13:51:26;4.90;99.90
1447;DHT22;717;51.522;7.266;2024-01-15T13:53:57;5.00;99.90
1447;DHT22;717;51.522;7.266;2024-01-15T13:56:27;5.00;99.90
1447;DHT22;717;51.522;7.266;2024-01-15T13:59:02;5.00;99.90
1447;DHT22;717;51.522;7.266;2024-01-15T14:01:32;5.00;99.90
1447;DHT22;717;51.522;7.266;2024-01-15T14:04:03;5.10;99.90
1447;DHT22;717;51.522;7.266;2024-01-15T14:06:33;5.00;99.90
1447;DHT22;717;51.522;7.266;2024-01-15T14:09:03;5.10;99.90
1447;DHT22;717;51.522;7.266;2024-01-15T14:11:36;5.20;99.90
1447;DHT22;717;51.522;7.266;2024-01-15T14:14:09;5.20;99.90
1447;DHT22;717;51.522;7.266;2024-01-15T14:16:39;5.20;99.90
1447;DHT22;717;51.522;7.266;2024-01-15T14:19:09;5.20;99.90
1447;DHT22;717;51.522;7.266;2024-01-15T14:21:40;5.10;99.90
1447;DHT22;717;51.522;7.266;2024-01-15T14:24:10;5.20;99.90
1447;DHT22;717;51.522;7.266;2024-01-15T14:26:40;5.20;99.90
1447;DHT22;717;51.522;7.266;2024-01-15T14:29:13;5.10;99.90
1447;DHT22;717;51.522;7.266;2024-01-15T14:31:43;5.10;99.90
1447;DHT22;717;51.522;7.266;2024-01-15T14:34:13;5.10;99.90
1447;DHT22;717;51.522;7.266;2024-01-15T14:36:45;5.20;99.90
1447;DHT22;717;51.522;7.266;2024-01-15T14:39:16;5.20;99.90
1447;DHT22;717;51.522;7.266;2024-01-15T14:41:48;5.10;99.90
1447;DHT22;717;51.522;7.266;2024-01-15T14:44:21;5.00;99.90
1447;DHT22;717;51.522;7.266;2024-01-15T14:46:51;5.00;99.90
1447;DHT22;717;51.522;7.266;2024-01-15T14:49:21;5.00;99.90
1447;DHT22;717;51.522;7.266;2024-01-15T14:51:51;5.00;99.90
1447;DHT22;717;51.522;7.266;2024-01-15T14:54:21;4.90;99.90
1447;DHT22;717;51.522;7.266;2024-01-15T14:56:52;4.90;99.90
1447;DHT22;717;51.522;7.266;2024-01-15T14:59:26;4.90;99.90
1447;DHT22;717;51.522;7.266;2024-01-15T15:01:57;4.80;99.90
1447;DHT22;717;51.522;7.266;2024-01-15T15:04:27;4.80;99.90
1447;DHT22;717;51.522;7.266;2024-01-15T15:06:58;4.80;99.90
1447;DHT22;717;51.522;7.266;2024-01-15T15:09:28;4.80;99.90
1447;DHT22;717;51.522;7.266;2024-01-15T15:11:58;4.70;99.90
1447;DHT22;717;51.522;7.266;2024-01-15T15:14:32;4.70;99.90
1447;DHT22;717;51.522;7.266;2024-01-15T15:17:17;4.70;99.90
1447;DHT22;717;51.522;7.266;2024-01-15T15:19:47;4.70;99.90
1447;DHT22;717;51.522;7.266;2024-01-15T15:22:21;4.60;99.90
1447;DHT22;717;51.522;7.266;2024-01-15T15:24:51;4.70;99.90
1447;DHT22;717;51.522;7.266;2024-01-15T15:27:22;4.80;99.90
1447;DHT22;717;51.522;7.266;2024-01-15T15:29:57;4.90;99.90
1447;DHT22;717;51.522;7.266;2024-01-15T15:32:27;4.90;99.90
1447;DHT22;717;51.522;7.266;2024-01-15T15:34:57;5.00;99.90
1447;DHT22;717;51.522;7.266;2024-01-15T15:37:27;5.00;99.90
1447;DHT22;717;51.522;7.266;2024-01-15T15:39:57;4.90;99.90
1447;DHT22;717;51.522;7.266;2024-01-15T15:42:28;4.90;99.90
1447;DHT22;717;51.522;7.266;2024-01-15T15:45:00;4.90;99.90
1447;DHT22;717;51.522;7.266;2024-01-15T15:47:31;4.90;99.90
1447;DHT22;717;51.522;7.266;2024-01-15T15:50:01;4.90;99.90
1447;DHT22;717;51.522;7.266;2024-01-15T15:52:31;4.90;99.90
1447;DHT22;717;51.522;7.266;2024-01-15T15:55:02;4.80;99.90
1447;DHT22;717;51.522;7.266;2024-01-15T15:57:32;4.80;99.90
1447;DHT22;717;51.522;7.266;2024-01-15T16:00:06;4.80;99.90
1447;DHT22;717;51.522;7.266;2024-01-15T16:02:39;4.80;99.90
1447;DHT22;717;51.522;7.266;2024-01-15T16:05:09;4.80;99.90
1447;DHT22;717;51.522;7.266;2024-01-15T16:07:37;4.90;99.90
1447;DHT22;717;51.522;7.266;2024-01-15T16:10:08;4.90;99.90
1447;DHT22;717;51.522;7.266;2024-01-15T16:12:39;4.80;99.90
1447;DHT22;717;51.522;7.266;2024-01-15T16:15:20;4.80;99.90
1447;DHT22;717;51.522;7.266;2024-01-15T16:17:51;4.80;99.90
1447;DHT22;717;51.522;7.266;2024-01-15T16:20:41;4.80;99.90
1447;DHT22;717;51.522;7.266;2024-01-15T16:23:31;4.70;99.90
1447;DHT22;717;51.522;7.266;2024-01-15T16:26:21;4.60;99.90
1447;DHT22;717;51.522;7.266;2024-01-15T16:28:52;4.60;99.90
1447;DHT22;717;51.522;7.266;2024-01-15T16:31:26;4.60;99.90
1447;DHT22;717;51.522;7.266;2024-01-15T16:33:56;4.70;99.90
1447;DHT22;717;51.522;7.266;2024-01-15T16:36:31;4.70;99.90
1447;DHT22;717;51.522;7.266;2024-01-15T16:39:02;4.70;99.90
1447;DHT22;717;51.522;7.266;2024-01-15T16:41:32;4.70;99.90
1447;DHT22;717;51.522;7.266;2024-01-15T16:44:03;4.60;99.90
1447;DHT22;717;51.522;7.266;2024-01-15T16:46:35;4.60;99.90
1447;DHT22;717;51.522;7.266;2024-01-15T16:49:05;4.60;99.90
1447;DHT22;717;51.522;7.266;2024-01-15T16:51:37;4.50;99.90
1447;DHT22;717;51.522;7.266;2024-01-15T16:54:07;4.60;99.90
1447;DHT22;717;51.522;7.266;2024-01-15T16:56:37;4.60;99.90
1447;DHT22;717;51.522;7.266;2024-01-15T16:59:07;4.70;99.90
1447;DHT22;717;51.522;7.266;2024-01-15T17:01:40;4.70;99.90
1447;DHT22;717;51.522;7.266;2024-01-15T17:04:10;4.60;99.90